Time;durP1;ratioP1;P1;durP2;ratioP2;P2;SDS_P1;SDS_P2;PMS_P1;PMS_P2;Temp;Humidity;BMP_temperature;BMP_pressure;BME280_temperature;BME280_humidity;BME280_pressure;Samples;Min_cycle;Max_cycle;Signal;HPM_P1;HPM_P2
2021/07/02 00:01:16;;;;;;;2.13;1.40;;;;;;;;;;5093325;28;20204;-75
2021/07/02 00:03:42;;;;;;;2.50;1.40;;;;;;;;;;5092507;28;20254;-75
2021/07/02 00:06:09;;;;;;;1.60;1.40;;;;;;;;;;5093164;28;20299;-75
2021/07/02 00:08:35;;;;;;;1.67;1.23;;;;;;;;;;5093101;28;20204;-75
2021/07/02 00:11:02;;;;;;;2.67;1.67;;;;;;;;;;5092796;28;20323;-75
2021/07/02 00:13:28;;;;;;;5.03;1.93;;;;;;;;;;5089879;28;20222;-75
2021/07/02 00:15:55;;;;;;;1.97;1.40;;;;;;;;;;5092749;28;20220;-75
2021/07/02 00:18:21;;;;;;;1.57;1.20;;;;;;;;;;5091838;28;20291;-75
2021/07/02 00:20:47;;;;;;;2.10;1.40;;;;;;;;;;5092948;28;20311;-75
2021/07/02 00:23:14;;;;;;;2.13;1.40;;;;;;;;;;5092557;28;20216;-75
2021/07/02 00:25:40;;;;;;;1.53;0.90;;;;;;;;;;5092205;28;20235;-75
2021/07/02 00:28:07;;;;;;;2.03;1.23;;;;;;;;;;5092907;28;20204;-75
2021/07/02 00:30:34;;;;;;;1.90;1.20;;;;;;;;;;5092727;28;20283;-75
2021/07/02 00:33:00;;;;;;;2.17;1.30;;;;;;;;;;5092380;28;20687;-75
2021/07/02 00:35:27;;;;;;;8.40;1.57;;;;;;;;;;5074188;28;20224;-75
2021/07/02 00:37:53;;;;;;;1.13;0.93;;;;;;;;;;5091470;28;20295;-75
2021/07/02 00:40:20;;;;;;;8.90;2.27;;;;;;;;;;5092303;28;20319;-75
2021/07/02 00:42:46;;;;;;;1.80;1.30;;;;;;;;;;5092723;28;20203;-75
2021/07/02 00:45:12;;;;;;;2.20;1.43;;;;;;;;;;5090716;28;20709;-75
2021/07/02 00:47:39;;;;;;;2.13;1.30;;;;;;;;;;5072506;28;20212;-76
2021/07/02 00:50:05;;;;;;;2.37;1.40;;;;;;;;;;5088800;28;20201;-76
2021/07/02 00:52:32;;;;;;;1.43;1.00;;;;;;;;;;5091199;28;20292;-75
2021/07/02 00:54:59;;;;;;;2.03;1.07;;;;;;;;;;5091661;28;20239;-76
2021/07/02 00:57:27;;;;;;;1.70;1.07;;;;;;;;;;5092558;28;20212;-75
2021/07/02 01:34:36;;;;;;;3.97;2.00;;;;;;;;;;5108788;27;20527;-76
2021/07/02 01:37:03;;;;;;;2.47;1.20;;;;;;;;;;5110024;28;20196;-75
2021/07/02 01:39:30;;;;;;;3.50;1.50;;;;;;;;;;5109831;28;20307;-76
2021/07/02 01:41:57;;;;;;;2.57;1.83;;;;;;;;;;5109930;28;20210;-76
2021/07/02 01:44:23;;;;;;;3.00;1.73;;;;;;;;;;5104556;28;20315;-75
2021/07/02 01:46:50;;;;;;;2.67;1.43;;;;;;;;;;5104555;28;20928;-75
2021/07/02 01:49:16;;;;;;;1.77;1.47;;;;;;;;;;5109357;28;20630;-75
2021/07/02 01:51:42;;;;;;;2.30;1.33;;;;;;;;;;5111949;28;20204;-76
2021/07/02 01:54:09;;;;;;;1.80;1.43;;;;;;;;;;5111057;28;20232;-76
2021/07/02 01:56:35;;;;;;;1.70;0.97;;;;;;;;;;5109185;28;20694;-76
2021/07/02 01:59:02;;;;;;;1.63;1.10;;;;;;;;;;5108041;28;20238;-76
2021/07/02 02:01:28;;;;;;;1.23;0.87;;;;;;;;;;5109040;28;20311;-76
2021/07/02 02:03:55;;;;;;;2.90;1.47;;;;;;;;;;5108559;28;20207;-76
2021/07/02 02:06:21;;;;;;;2.87;1.30;;;;;;;;;;5109248;28;20232;-76
2021/07/02 02:08:47;;;;;;;1.90;1.20;;;;;;;;;;5107754;28;20210;-76
2021/07/02 02:11:14;;;;;;;4.33;1.80;;;;;;;;;;5108969;28;20291;-76
2021/07/02 02:13:40;;;;;;;1.77;1.33;;;;;;;;;;5107909;28;20665;-75
2021/07/02 02:16:07;;;;;;;1.50;1.13;;;;;;;;;;5108752;27;20303;-76
2021/07/02 02:18:33;;;;;;;2.17;1.57;;;;;;;;;;5107404;28;20200;-76
2021/07/02 02:21:00;;;;;;;2.37;1.33;;;;;;;;;;5107386;28;20207;-76
2021/07/02 02:23:26;;;;;;;2.43;1.07;;;;;;;;;;5106751;28;20286;-75
2021/07/02 02:25:52;;;;;;;3.23;1.40;;;;;;;;;;5108395;28;20629;-76
2021/07/02 02:28:19;;;;;;;2.33;1.57;;;;;;;;;;5108404;28;20274;-76
2021/07/02 02:30:45;;;;;;;1.77;1.30;;;;;;;;;;5108682;28;20251;-76
2021/07/02 02:33:12;;;;;;;1.70;1.20;;;;;;;;;;5108099;27;20607;-76
2021/07/02 02:35:38;;;;;;;2.40;1.47;;;;;;;;;;5106936;28;20314;-76
2021/07/02 02:38:05;;;;;;;1.40;0.93;;;;;;;;;;5108409;28;20245;-76
2021/07/02 02:40:31;;;;;;;4.20;2.07;;;;;;;;;;5108345;28;20228;-76
2021/07/02 02:42:58;;;;;;;2.83;1.40;;;;;;;;;;5108041;28;20291;-76
2021/07/02 02:45:24;;;;;;;1.37;1.17;;;;;;;;;;5094268;28;20320;-75
2021/07/02 02:47:50;;;;;;;1.67;1.00;;;;;;;;;;5074566;28;20288;-76
2021/07/02 02:50:17;;;;;;;3.33;1.80;;;;;;;;;;5076533;28;20690;-76
2021/07/02 02:52:44;;;;;;;1.63;1.17;;;;;;;;;;5094338;28;20295;-76
2021/07/02 02:55:10;;;;;;;4.10;1.40;;;;;;;;;;5092776;28;20259;-76
2021/07/02 02:57:36;;;;;;;1.87;1.17;;;;;;;;;;5093171;28;20292;-76
2021/07/02 03:00:04;;;;;;;2.80;1.57;;;;;;;;;;5093496;28;20228;-76
2021/07/02 03:02:30;;;;;;;2.93;1.60;;;;;;;;;;5094452;28;20250;-76
2021/07/02 03:04:57;;;;;;;2.27;1.73;;;;;;;;;;5093468;28;20709;-76
2021/07/02 03:07:23;;;;;;;2.90;1.50;;;;;;;;;;5094243;28;20587;-76
2021/07/02 03:09:54;;;;;;;2.50;1.33;;;;;;;;;;5094204;28;20295;-75
2021/07/02 03:12:20;;;;;;;3.70;1.60;;;;;;;;;;5093915;28;20300;-75
2021/07/02 03:14:47;;;;;;;2.60;1.47;;;;;;;;;;5093209;28;20315;-75
2021/07/02 03:17:13;;;;;;;2.80;1.30;;;;;;;;;;5094220;28;20623;-76
2021/07/02 03:19:39;;;;;;;2.03;1.33;;;;;;;;;;5092846;28;20204;-75
2021/07/02 03:22:06;;;;;;;2.60;1.37;;;;;;;;;;5092798;28;20204;-76
2021/07/02 03:24:32;;;;;;;2.10;1.20;;;;;;;;;;5093312;28;20311;-74
2021/07/02 03:26:59;;;;;;;1.57;1.20;;;;;;;;;;5092711;28;20288;-76
2021/07/02 03:29:25;;;;;;;1.93;1.43;;;;;;;;;;5094112;28;20218;-75
2021/07/02 03:31:51;;;;;;;2.07;1.07;;;;;;;;;;5094194;28;20283;-75
2021/07/02 03:34:18;;;;;;;1.40;1.00;;;;;;;;;;5093062;28;20311;-75
2021/07/02 03:36:44;;;;;;;2.00;1.17;;;;;;;;;;5092589;28;20236;-75
2021/07/02 03:39:11;;;;;;;2.80;1.43;;;;;;;;;;5093745;28;20247;-77
2021/07/02 03:41:37;;;;;;;1.70;1.30;;;;;;;;;;5093564;28;20223;-76
2021/07/02 03:44:03;;;;;;;1.93;1.13;;;;;;;;;;5092878;28;20307;-75
2021/07/02 03:46:30;;;;;;;2.03;1.10;;;;;;;;;;5080273;28;20205;-75
2021/07/02 03:48:56;;;;;;;2.73;1.20;;;;;;;;;;5073266;28;20239;-75
2021/07/02 03:51:23;;;;;;;2.47;1.40;;;;;;;;;;5084543;28;20232;-76
2021/07/02 03:53:49;;;;;;;2.30;1.53;;;;;;;;;;5092283;28;20608;-76
2021/07/02 03:56:16;;;;;;;1.50;1.03;;;;;;;;;;5091307;28;20201;-76
2021/07/02 03:58:42;;;;;;;2.17;1.50;;;;;;;;;;5093372;28;20295;-76
2021/07/02 04:01:09;;;;;;;3.40;1.70;;;;;;;;;;5093134;28;20688;-76
2021/07/02 04:03:36;;;;;;;2.20;1.43;;;;;;;;;;5092518;28;20253;-75
2021/07/02 04:06:02;;;;;;;2.57;1.60;;;;;;;;;;5091724;28;20323;-75
2021/07/02 04:08:29;;;;;;;2.40;1.00;;;;;;;;;;5092718;28;20219;-75
2021/07/02 04:10:55;;;;;;;2.57;1.13;;;;;;;;;;5091941;28;20204;-75
2021/07/02 04:13:22;;;;;;;1.67;1.20;;;;;;;;;;5092063;28;20909;-75
2021/07/02 04:15:49;;;;;;;2.40;1.30;;;;;;;;;;5092803;28;20236;-75
2021/07/02 04:18:15;;;;;;;2.33;1.10;;;;;;;;;;5092811;28;20201;-75
2021/07/02 04:20:42;;;;;;;1.70;1.03;;;;;;;;;;5092726;28;20669;-75
2021/07/02 04:23:08;;;;;;;2.90;1.60;;;;;;;;;;5092535;28;20291;-75
2021/07/02 04:25:35;;;;;;;1.63;1.00;;;;;;;;;;5091883;28;20701;-75
2021/07/02 04:28:01;;;;;;;3.87;1.80;;;;;;;;;;5095365;28;20247;-75
2021/07/02 04:30:27;;;;;;;2.10;1.43;;;;;;;;;;5099270;28;20228;-75
2021/07/02 04:32:54;;;;;;;3.10;1.47;;;;;;;;;;5092980;28;20634;-75
2021/07/02 04:35:20;;;;;;;1.07;0.90;;;;;;;;;;5092028;28;20252;-74
2021/07/02 04:37:47;;;;;;;3.70;1.70;;;;;;;;;;5091154;28;20204;-75
2021/07/02 04:40:15;;;;;;;1.90;1.13;;;;;;;;;;5092305;28;20207;-75
2021/07/02 04:42:41;;;;;;;1.47;1.10;;;;;;;;;;5092444;28;20216;-75
2021/07/02 04:45:08;;;;;;;1.97;1.10;;;;;;;;;;5091111;28;20251;-75
2021/07/02 04:47:34;;;;;;;3.07;1.27;;;;;;;;;;5072115;28;20232;-75
2021/07/02 04:50:02;;;;;;;4.13;1.43;;;;;;;;;;5071931;28;20232;-75
2021/07/02 04:52:28;;;;;;;1.60;1.23;;;;;;;;;;5092191;28;20218;-75
2021/07/02 04:54:55;;;;;;;1.90;1.27;;;;;;;;;;5091294;28;20711;-74
2021/07/02 04:57:21;;;;;;;2.63;1.60;;;;;;;;;;5092225;28;20205;-75
2021/07/02 04:59:50;;;;;;;2.03;1.27;;;;;;;;;;5092399;28;20228;-75
2021/07/02 05:02:16;;;;;;;4.33;1.43;;;;;;;;;;5088830;28;20275;-75
2021/07/02 05:04:43;;;;;;;1.50;0.93;;;;;;;;;;5091049;28;20228;-75
2021/07/02 05:07:11;;;;;;;1.73;1.10;;;;;;;;;;5092027;28;20283;-76
2021/07/02 05:09:38;;;;;;;1.80;1.20;;;;;;;;;;5091754;28;20754;-75
2021/07/02 05:12:05;;;;;;;1.93;1.20;;;;;;;;;;5074018;28;20236;-75
2021/07/02 05:14:33;;;;;;;2.53;1.10;;;;;;;;;;5069837;28;20225;-75
2021/07/02 05:17:02;;;;;;;2.93;1.43;;;;;;;;;;5085146;28;20251;-74
2021/07/02 05:19:28;;;;;;;2.77;1.63;;;;;;;;;;5091794;28;20230;-74
2021/07/02 05:21:55;;;;;;;2.50;1.40;;;;;;;;;;5090168;28;20613;-74
2021/07/02 05:24:21;;;;;;;2.57;1.53;;;;;;;;;;5089732;28;20692;-74
2021/07/02 05:26:48;;;;;;;1.43;1.13;;;;;;;;;;5073950;28;20273;-75
2021/07/02 05:29:14;;;;;;;2.73;1.53;;;;;;;;;;5079822;28;20760;-74
2021/07/02 05:31:40;;;;;;;2.87;1.20;;;;;;;;;;5062650;28;20303;-74
2021/07/02 05:34:07;;;;;;;1.67;1.23;;;;;;;;;;5073130;28;20227;-74
2021/07/02 05:36:34;;;;;;;4.43;2.00;;;;;;;;;;5080343;28;20284;-74
2021/07/02 05:39:00;;;;;;;4.57;1.58;;;;;;;;;;5077940;28;20244;-74
2021/07/02 05:41:27;;;;;;;1.77;1.20;;;;;;;;;;5077628;28;20205;-76
2021/07/02 05:43:53;;;;;;;1.63;1.13;;;;;;;;;;5065491;28;20288;-74
2021/07/02 05:46:19;;;;;;;1.83;1.03;;;;;;;;;;5076809;28;20295;-72
2021/07/02 05:48:48;;;;;;;4.03;1.80;;;;;;;;;;5087110;28;20573;-71
2021/07/02 05:51:14;;;;;;;2.33;1.65;;;;;;;;;;5088777;28;20205;-73
2021/07/02 05:53:41;;;;;;;1.75;1.15;;;;;;;;;;5084698;28;20319;-73
2021/07/02 05:56:07;;;;;;;2.20;1.55;;;;;;;;;;5086602;28;20283;-71
2021/07/02 05:58:34;;;;;;;4.33;1.53;;;;;;;;;;5087215;28;20228;-71
2021/07/02 06:01:00;;;;;;;1.58;0.88;;;;;;;;;;5082565;28;20283;-73
2021/07/02 06:03:26;;;;;;;1.98;1.25;;;;;;;;;;5081243;28;20307;-73
2021/07/02 06:06:07;;;;;;;1.65;1.05;;;;;;;;;;5089371;28;20282;-74
2021/07/02 06:08:34;;;;;;;3.03;2.10;;;;;;;;;;5089111;28;20197;-75
2021/07/02 06:11:01;;;;;;;2.88;1.63;;;;;;;;;;5090382;28;20219;-74
2021/07/02 06:13:27;;;;;;;3.15;1.80;;;;;;;;;;5089544;28;20212;-75
2021/07/02 06:15:54;;;;;;;2.92;1.35;;;;;;;;;;5090629;28;20299;-75
2021/07/02 06:18:21;;;;;;;3.38;1.67;;;;;;;;;;5090714;28;20209;-75
2021/07/02 06:20:51;;;;;;;2.63;1.50;;;;;;;;;;5093209;28;20304;-75
2021/07/02 06:23:18;;;;;;;2.45;1.50;;;;;;;;;;5093789;28;20317;-74
2021/07/02 06:25:45;;;;;;;2.40;1.60;;;;;;;;;;5093860;28;20263;-74
2021/07/02 06:28:12;;;;;;;3.25;1.27;;;;;;;;;;5093815;28;20685;-75
2021/07/02 06:30:39;;;;;;;2.00;1.60;;;;;;;;;;5093847;28;20204;-74
2021/07/02 06:33:05;;;;;;;2.47;1.65;;;;;;;;;;5093211;28;20295;-74
2021/07/02 06:35:31;;;;;;;3.40;1.57;;;;;;;;;;5093352;28;20228;-74
2021/07/02 06:37:58;;;;;;;2.25;1.20;;;;;;;;;;5089907;28;20284;-75
2021/07/02 06:40:25;;;;;;;3.45;1.67;;;;;;;;;;5088336;28;20203;-73
2021/07/02 06:42:51;;;;;;;3.45;1.85;;;;;;;;;;5086995;28;20288;-72
2021/07/02 06:45:18;;;;;;;3.78;1.90;;;;;;;;;;5088747;28;20237;-74
2021/07/02 06:47:56;;;;;;;2.53;1.48;;;;;;;;;;5089613;28;20295;-74
2021/07/02 06:50:27;;;;;;;2.55;1.48;;;;;;;;;;5088438;28;20202;-72
2021/07/02 06:52:53;;;;;;;2.50;1.52;;;;;;;;;;5087490;28;20208;-73
2021/07/02 06:55:20;;;;;;;1.85;1.30;;;;;;;;;;5088009;28;20244;-76
2021/07/02 06:57:46;;;;;;;3.08;1.88;;;;;;;;;;5090315;28;20207;-72
2021/07/02 07:00:16;;;;;;;2.40;1.33;;;;;;;;;;5089960;28;20289;-73
2021/07/02 07:02:43;;;;;;;2.45;1.40;;;;;;;;;;5088240;28;20235;-73
2021/07/02 07:05:10;;;;;;;2.85;1.77;;;;;;;;;;5086373;28;20248;-74
2021/07/02 07:07:37;;;;;;;2.88;1.60;;;;;;;;;;5086419;28;20221;-78
2021/07/02 07:10:04;;;;;;;1.92;1.45;;;;;;;;;;5084598;28;20205;-78
2021/07/02 07:12:30;;;;;;;4.25;1.88;;;;;;;;;;5087474;28;20267;-75
2021/07/02 07:14:57;;;;;;;3.40;1.48;;;;;;;;;;5088097;28;20221;-78
2021/07/02 07:17:24;;;;;;;2.30;1.40;;;;;;;;;;5080839;28;20845;-77
2021/07/02 07:19:51;;;;;;;1.42;1.05;;;;;;;;;;5089709;28;20273;-76
2021/07/02 07:22:17;;;;;;;3.10;1.92;;;;;;;;;;5088220;28;20255;-76
2021/07/02 07:24:44;;;;;;;3.25;1.38;;;;;;;;;;5087993;28;20225;-75
2021/07/02 07:27:11;;;;;;;2.42;1.58;;;;;;;;;;5092985;28;20295;-75
2021/07/02 07:29:37;;;;;;;2.85;1.45;;;;;;;;;;5092065;28;20273;-75
2021/07/02 07:32:04;;;;;;;2.38;1.33;;;;;;;;;;5091818;28;20212;-76
2021/07/02 07:37:07;;;;;;;1.80;1.20;;;;;;;;;;5092668;28;20212;-76
2021/07/02 07:39:34;;;;;;;4.50;1.80;;;;;;;;;;5092550;28;20295;-76
2021/07/02 07:42:00;;;;;;;3.70;1.60;;;;;;;;;;5091381;28;20258;-75
2021/07/02 07:44:27;;;;;;;2.00;1.30;;;;;;;;;;5092145;28;20307;-75
2021/07/02 07:46:55;;;;;;;2.35;1.40;;;;;;;;;;5092746;28;20211;-75
2021/07/02 07:49:22;;;;;;;3.47;1.73;;;;;;;;;;5092760;28;20305;-75
2021/07/02 07:52:10;;;;;;;2.33;1.63;;;;;;;;;;5091506;28;20208;-75
2021/07/02 07:54:37;;;;;;;2.92;1.52;;;;;;;;;;5084621;28;20232;-74
2021/07/02 07:57:04;;;;;;;4.15;1.90;;;;;;;;;;5092141;28;20284;-73
2021/07/02 07:59:31;;;;;;;3.22;1.40;;;;;;;;;;5090948;28;20915;-73
2021/07/02 08:01:59;;;;;;;1.67;1.35;;;;;;;;;;5092023;28;20286;-73
2021/07/02 08:04:25;;;;;;;2.70;1.83;;;;;;;;;;5091785;28;20642;-75
2021/07/02 08:06:52;;;;;;;2.47;1.63;;;;;;;;;;5092678;28;20208;-73
2021/07/02 08:09:19;;;;;;;1.67;1.20;;;;;;;;;;5092222;28;20216;-73
2021/07/02 08:11:45;;;;;;;3.00;1.50;;;;;;;;;;5092236;28;20210;-75
2021/07/02 08:14:12;;;;;;;2.17;1.73;;;;;;;;;;5090472;28;20256;-73
2021/07/02 08:16:39;;;;;;;3.40;1.90;;;;;;;;;;5092447;28;20200;-75
2021/07/02 08:19:06;;;;;;;4.50;2.28;;;;;;;;;;5090860;28;20201;-74
2021/07/02 08:21:32;;;;;;;3.03;2.17;;;;;;;;;;5092228;28;20284;-73
2021/07/02 08:23:59;;;;;;;2.67;1.58;;;;;;;;;;5090871;28;20618;-75
2021/07/02 08:26:26;;;;;;;2.50;1.27;;;;;;;;;;5091903;28;20229;-73
2021/07/02 08:31:38;;;;;;;4.43;2.03;;;;;;;;;;5085902;28;20220;-73
2021/07/02 08:34:05;;;;;;;2.55;1.50;;;;;;;;;;5090659;28;20232;-73
2021/07/02 08:36:31;;;;;;;3.50;1.77;;;;;;;;;;5090481;28;20642;-75
2021/07/02 08:38:58;;;;;;;1.90;1.48;;;;;;;;;;5091081;28;20574;-75
2021/07/02 08:41:24;;;;;;;1.63;1.20;;;;;;;;;;5091709;28;20216;-75
2021/07/02 08:43:51;;;;;;;2.60;1.33;;;;;;;;;;5096108;28;20279;-73
2021/07/02 08:46:20;;;;;;;3.13;1.90;;;;;;;;;;5089841;28;20718;-73
2021/07/02 08:48:47;;;;;;;2.47;1.50;;;;;;;;;;5090195;28;20652;-74
2021/07/02 08:51:14;;;;;;;2.70;2.00;;;;;;;;;;5091317;28;20209;-76
2021/07/02 08:53:41;;;;;;;3.15;1.77;;;;;;;;;;5091126;28;20212;-74
2021/07/02 08:56:08;;;;;;;2.65;1.80;;;;;;;;;;5091393;28;20228;-73
2021/07/02 08:58:36;;;;;;;3.55;1.67;;;;;;;;;;5091545;28;20211;-74
2021/07/02 09:01:07;;;;;;;2.70;1.70;;;;;;;;;;5091176;28;20232;-76
2021/07/02 09:03:38;;;;;;;3.53;1.90;;;;;;;;;;5091099;28;20200;-74
2021/07/02 09:06:14;;;;;;;2.40;1.75;;;;;;;;;;5091191;28;20235;-75
2021/07/02 09:08:56;;;;;;;2.55;1.40;;;;;;;;;;5091004;28;20295;-77
2021/07/02 09:11:24;;;;;;;2.58;1.48;;;;;;;;;;5083188;28;20215;-75
2021/07/02 09:13:50;;;;;;;4.13;1.55;;;;;;;;;;5089240;28;20212;-74
2021/07/02 09:16:21;;;;;;;2.88;1.80;;;;;;;;;;5089380;28;20641;-73
2021/07/02 09:18:48;;;;;;;1.90;1.70;;;;;;;;;;5078643;28;20204;-77
2021/07/02 09:21:30;;;;;;;2.67;1.50;;;;;;;;;;5085652;28;20212;-75
2021/07/02 09:23:58;;;;;;;1.77;1.40;;;;;;;;;;5086431;28;20201;-76
2021/07/02 09:26:33;;;;;;;1.70;1.30;;;;;;;;;;5081154;28;20249;-74
2021/07/02 09:29:13;;;;;;;2.67;1.58;;;;;;;;;;5082924;28;20231;-75
2021/07/02 09:31:39;;;;;;;2.67;1.45;;;;;;;;;;5084618;28;20303;-75
2021/07/02 09:34:06;;;;;;;2.72;1.63;;;;;;;;;;5083592;28;20240;-78
2021/07/02 09:36:32;;;;;;;2.45;1.67;;;;;;;;;;5085155;28;20256;-74
2021/07/02 09:38:59;;;;;;;2.35;1.30;;;;;;;;;;5084754;28;20200;-74
2021/07/02 09:41:34;;;;;;;2.35;1.50;;;;;;;;;;5086599;28;20211;-77
2021/07/02 09:44:11;;;;;;;3.15;1.77;;;;;;;;;;5086896;28;21021;-74
2021/07/02 09:46:37;;;;;;;4.03;1.73;;;;;;;;;;5087503;28;20584;-76
2021/07/02 09:49:04;;;;;;;4.40;1.75;;;;;;;;;;5089189;28;20204;-75
2021/07/02 09:51:31;;;;;;;9.70;1.85;;;;;;;;;;5089333;28;20210;-73
2021/07/02 09:54:04;;;;;;;3.10;1.70;;;;;;;;;;5087752;28;20208;-74
2021/07/02 09:56:30;;;;;;;2.72;2.05;;;;;;;;;;5092789;28;20224;-74
2021/07/02 09:58:57;;;;;;;3.30;1.77;;;;;;;;;;5094367;28;20204;-72
2021/07/02 10:01:25;;;;;;;4.05;1.92;;;;;;;;;;5086629;28;20303;-70
2021/07/02 10:03:51;;;;;;;6.28;2.08;;;;;;;;;;5093402;28;20617;-71
2021/07/02 10:06:28;;;;;;;1.48;1.20;;;;;;;;;;5094027;28;20946;-71
2021/07/02 10:08:55;;;;;;;3.45;2.17;;;;;;;;;;5094308;28;20553;-72
2021/07/02 10:11:23;;;;;;;2.38;1.67;;;;;;;;;;5094265;28;20219;-71
2021/07/02 10:13:50;;;;;;;2.92;1.70;;;;;;;;;;5092015;28;20561;-69
2021/07/02 10:16:17;;;;;;;2.70;1.70;;;;;;;;;;5093720;28;20236;-70
2021/07/02 10:18:58;;;;;;;3.35;1.92;;;;;;;;;;5094082;28;20243;-71
2021/07/02 10:21:25;;;;;;;3.00;1.80;;;;;;;;;;5086213;28;20287;-72
2021/07/02 10:23:54;;;;;;;2.58;1.85;;;;;;;;;;5092836;28;20240;-73
2021/07/02 10:26:21;;;;;;;3.00;1.85;;;;;;;;;;5093899;28;20531;-69
2021/07/02 10:28:48;;;;;;;3.10;1.67;;;;;;;;;;5093857;28;20204;-72
2021/07/02 10:31:17;;;;;;;3.60;2.72;;;;;;;;;;5091870;28;20237;-71
2021/07/02 10:33:48;;;;;;;3.13;2.20;;;;;;;;;;5092800;28;20220;-73
2021/07/02 10:36:15;;;;;;;4.13;2.35;;;;;;;;;;5094019;28;20259;-73
2021/07/02 10:38:43;;;;;;;5.03;2.10;;;;;;;;;;5094096;28;20211;-70
2021/07/02 10:41:30;;;;;;;3.63;2.13;;;;;;;;;;5094109;28;20287;-72
2021/07/02 10:43:59;;;;;;;4.70;3.00;;;;;;;;;;5092733;28;20284;-71
2021/07/02 10:46:26;;;;;;;4.72;2.35;;;;;;;;;;5093553;28;20634;-70
2021/07/02 10:48:56;;;;;;;5.20;2.10;;;;;;;;;;5093937;28;20204;-71
2021/07/02 10:51:36;;;;;;;3.50;1.90;;;;;;;;;;5082286;28;20264;-71
2021/07/02 10:54:09;;;;;;;4.22;2.92;;;;;;;;;;5072093;28;20239;-75
2021/07/02 10:56:36;;;;;;;3.35;2.22;;;;;;;;;;5084121;28;20589;-74
2021/07/02 10:59:02;;;;;;;4.15;2.35;;;;;;;;;;5089282;28;20201;-70
2021/07/02 11:01:32;;;;;;;5.50;2.75;;;;;;;;;;5070297;28;20578;-70
2021/07/02 11:04:17;;;;;;;6.32;2.47;;;;;;;;;;5087608;28;20254;-75
2021/07/02 11:06:44;;;;;;;3.30;2.28;;;;;;;;;;5087976;28;20204;-74
2021/07/02 11:09:10;;;;;;;5.15;2.67;;;;;;;;;;5088494;28;20209;-73
2021/07/02 11:11:55;;;;;;;4.72;2.45;;;;;;;;;;5087681;28;20201;-73
2021/07/02 11:14:22;;;;;;;4.00;2.72;;;;;;;;;;5088249;28;20228;-73
2021/07/02 11:17:24;;;;;;;3.05;2.20;;;;;;;;;;5086892;28;20243;-73
2021/07/02 11:22:58;;;;;;;3.47;2.00;;;;;;;;;;5086118;28;20303;-71
2021/07/02 11:25:27;;;;;;;2.88;2.08;;;;;;;;;;5087696;28;20227;-70
2021/07/02 11:27:58;;;;;;;3.42;2.13;;;;;;;;;;5088309;28;20234;-71
2021/07/02 11:32:56;;;;;;;4.95;2.63;;;;;;;;;;5087281;28;20621;-70
2021/07/02 11:35:22;;;;;;;2.63;2.13;;;;;;;;;;5087275;28;20711;-71
2021/07/02 11:38:02;;;;;;;3.92;2.30;;;;;;;;;;5086696;28;20732;-72
2021/07/02 11:40:29;;;;;;;3.63;1.90;;;;;;;;;;5086271;28;20775;-71
2021/07/02 11:43:16;;;;;;;4.95;2.20;;;;;;;;;;5086811;28;20211;-73
2021/07/02 11:45:44;;;;;;;5.25;2.50;;;;;;;;;;5087766;28;20220;-74
2021/07/02 11:48:23;;;;;;;4.18;2.72;;;;;;;;;;5087823;28;20791;-73
2021/07/02 11:50:54;;;;;;;2.83;2.05;;;;;;;;;;5092255;28;20203;-73
2021/07/02 11:53:30;;;;;;;4.82;2.38;;;;;;;;;;5105944;28;20204;-73
2021/07/02 11:56:03;;;;;;;2.15;1.83;;;;;;;;;;5097177;28;20220;-74
2021/07/02 11:58:31;;;;;;;3.55;2.30;;;;;;;;;;5087654;28;20193;-73
2021/07/02 12:00:58;;;;;;;2.50;1.80;;;;;;;;;;5087222;28;20237;-73
2021/07/02 12:03:25;;;;;;;3.70;2.33;;;;;;;;;;5069982;28;20217;-72
2021/07/02 12:05:56;;;;;;;4.03;2.30;;;;;;;;;;5066345;28;20301;-73
2021/07/02 12:08:23;;;;;;;4.57;2.63;;;;;;;;;;5067766;28;20215;-73
2021/07/02 12:11:08;;;;;;;3.70;2.47;;;;;;;;;;5065531;28;20211;-74
2021/07/02 12:13:34;;;;;;;5.50;2.53;;;;;;;;;;5065094;28;20208;-73
2021/07/02 12:16:03;;;;;;;4.72;2.78;;;;;;;;;;5066281;28;20229;-73
2021/07/02 12:18:29;;;;;;;4.28;2.20;;;;;;;;;;5066226;28;20606;-74
2021/07/02 12:21:06;;;;;;;4.72;2.00;;;;;;;;;;5068426;28;20217;-74
2021/07/02 12:23:37;;;;;;;3.55;2.45;;;;;;;;;;5068869;28;20701;-74
2021/07/02 12:26:07;;;;;;;4.93;2.78;;;;;;;;;;5066835;28;20678;-74
2021/07/02 12:28:56;;;;;;;5.50;2.47;;;;;;;;;;5066219;28;20211;-73
2021/07/02 12:31:23;;;;;;;4.18;2.25;;;;;;;;;;5080263;28;20200;-74
2021/07/02 12:33:49;;;;;;;3.03;1.90;;;;;;;;;;5085842;28;20303;-74
2021/07/02 12:36:16;;;;;;;6.68;2.92;;;;;;;;;;5085159;28;20251;-70
2021/07/02 12:39:01;;;;;;;5.35;3.20;;;;;;;;;;5085456;28;20215;-72
2021/07/02 12:42:00;;;;;;;2.78;2.13;;;;;;;;;;5082647;28;20201;-73
2021/07/02 12:44:27;;;;;;;5.32;2.90;;;;;;;;;;5064066;28;20812;-73
2021/07/02 12:46:54;;;;;;;3.53;2.20;;;;;;;;;;5071392;28;20212;-70
2021/07/02 12:49:51;;;;;;;4.57;2.33;;;;;;;;;;5066818;28;20201;-73
2021/07/02 12:54:57;;;;;;;4.88;2.85;;;;;;;;;;5063841;28;20776;-73
2021/07/02 12:57:39;;;;;;;3.58;2.13;;;;;;;;;;5096201;28;20290;-73
2021/07/02 13:00:07;;;;;;;3.45;2.22;;;;;;;;;;5106788;28;20262;-72
2021/07/02 13:02:34;;;;;;;4.03;2.63;;;;;;;;;;5104513;28;20245;-75
2021/07/02 13:05:06;;;;;;;2.88;2.17;;;;;;;;;;5101437;27;20228;-75
2021/07/02 13:07:51;;;;;;;3.58;2.50;;;;;;;;;;5091542;28;20286;-74
2021/07/02 13:10:20;;;;;;;2.83;2.03;;;;;;;;;;5108178;27;20203;-70
2021/07/02 13:13:05;;;;;;;2.95;2.35;;;;;;;;;;5107677;27;20208;-75
2021/07/02 13:15:33;;;;;;;2.28;1.80;;;;;;;;;;5102624;27;20326;-69
2021/07/02 13:17:59;;;;;;;3.95;2.35;;;;;;;;;;5111808;27;20282;-72
2021/07/02 13:20:43;;;;;;;4.03;2.55;;;;;;;;;;5089467;28;20200;-72
2021/07/02 13:23:12;;;;;;;2.63;1.77;;;;;;;;;;5098330;28;20310;-72
2021/07/02 13:25:38;;;;;;;3.38;2.35;;;;;;;;;;5106489;28;20318;-72
2021/07/02 13:28:05;;;;;;;5.85;2.88;;;;;;;;;;5107218;28;20286;-74
2021/07/02 13:30:33;;;;;;;4.78;2.58;;;;;;;;;;5108065;28;20250;-69
2021/07/02 13:33:12;;;;;;;3.95;2.22;;;;;;;;;;5106383;28;20298;-69
2021/07/02 13:35:39;;;;;;;4.45;2.60;;;;;;;;;;5120812;28;20313;-74
2021/07/02 13:38:09;;;;;;;4.85;2.33;;;;;;;;;;5111899;28;20195;-74
2021/07/02 13:40:35;;;;;;;4.32;2.35;;;;;;;;;;5134556;28;20207;-73
2021/07/02 13:43:03;;;;;;;5.00;3.05;;;;;;;;;;5126528;28;20239;-68
2021/07/02 13:45:29;;;;;;;2.78;2.00;;;;;;;;;;5103870;28;20230;-74
2021/07/02 13:48:04;;;;;;;2.42;1.83;;;;;;;;;;5096703;28;20215;-72
2021/07/02 13:50:31;;;;;;;3.63;2.33;;;;;;;;;;5093995;28;20222;-73
2021/07/02 13:52:57;;;;;;;6.05;2.22;;;;;;;;;;5110591;28;20303;-70
2021/07/02 13:55:23;;;;;;;3.97;2.40;;;;;;;;;;5109918;28;20227;-70
2021/07/02 13:57:50;;;;;;;3.78;2.17;;;;;;;;;;5107143;28;20578;-71
2021/07/02 14:00:16;;;;;;;2.83;2.15;;;;;;;;;;5093537;28;20212;-71
2021/07/02 14:02:42;;;;;;;3.22;2.60;;;;;;;;;;5091642;28;20204;-70
2021/07/02 14:05:10;;;;;;;2.83;2.10;;;;;;;;;;5103868;28;20226;-70
2021/07/02 14:07:36;;;;;;;2.95;2.08;;;;;;;;;;5105568;28;20730;-71
2021/07/02 14:10:02;;;;;;;5.05;3.05;;;;;;;;;;5108452;28;20664;-72
2021/07/02 14:12:29;;;;;;;4.13;2.75;;;;;;;;;;5110058;28;20204;-73
2021/07/02 14:14:55;;;;;;;4.15;2.50;;;;;;;;;;5108893;28;20342;-72
2021/07/02 14:17:22;;;;;;;5.03;2.38;;;;;;;;;;5109521;28;20734;-73
2021/07/02 14:19:49;;;;;;;3.22;1.85;;;;;;;;;;5092010;28;20206;-72
2021/07/02 14:22:15;;;;;;;3.17;2.55;;;;;;;;;;5109833;28;20292;-72
2021/07/02 14:24:42;;;;;;;3.42;2.25;;;;;;;;;;5108721;28;20224;-71
2021/07/02 14:27:08;;;;;;;3.30;2.40;;;;;;;;;;5090727;28;20204;-72
2021/07/02 14:29:53;;;;;;;4.00;2.40;;;;;;;;;;5110566;28;20204;-73
2021/07/02 14:32:19;;;;;;;3.78;2.40;;;;;;;;;;5110015;28;20282;-73
2021/07/02 14:34:45;;;;;;;3.53;2.45;;;;;;;;;;5107861;28;20247;-73
2021/07/02 14:37:12;;;;;;;2.65;2.13;;;;;;;;;;5090069;28;20280;-74
2021/07/02 14:39:38;;;;;;;3.67;2.45;;;;;;;;;;5106692;28;20203;-71
2021/07/02 14:42:04;;;;;;;2.97;2.00;;;;;;;;;;5080920;28;20200;-71
2021/07/02 14:44:31;;;;;;;2.92;2.00;;;;;;;;;;5102973;28;20307;-72
2021/07/02 14:46:57;;;;;;;3.88;2.60;;;;;;;;;;5089646;28;20283;-70
2021/07/02 14:49:24;;;;;;;5.50;2.75;;;;;;;;;;5113378;28;20652;-73
2021/07/02 14:51:50;;;;;;;3.88;2.17;;;;;;;;;;5111694;28;20291;-74
2021/07/02 14:54:17;;;;;;;3.85;2.30;;;;;;;;;;5108234;28;20688;-74
2021/07/02 14:56:43;;;;;;;6.30;2.78;;;;;;;;;;5107135;28;21789;-74
2021/07/02 14:59:10;;;;;;;2.22;1.58;;;;;;;;;;5091474;28;20289;-74
2021/07/02 15:01:37;;;;;;;2.35;2.03;;;;;;;;;;5056167;28;20223;-74
2021/07/02 15:04:03;;;;;;;5.20;2.65;;;;;;;;;;5088060;28;20510;-74
2021/07/02 15:06:31;;;;;;;4.18;2.13;;;;;;;;;;5069632;28;20368;-74
2021/07/02 15:08:58;;;;;;;5.63;2.28;;;;;;;;;;5070101;28;20214;-74
2021/07/02 15:11:24;;;;;;;1.98;1.63;;;;;;;;;;5092600;28;20251;-74
2021/07/02 15:13:50;;;;;;;3.85;2.15;;;;;;;;;;5092736;28;20240;-74
2021/07/02 15:16:17;;;;;;;3.05;2.00;;;;;;;;;;5092358;28;20220;-76
2021/07/02 15:18:43;;;;;;;3.65;2.05;;;;;;;;;;5093130;28;20572;-73
2021/07/02 15:21:13;;;;;;;4.18;2.88;;;;;;;;;;5092207;28;20210;-74
2021/07/02 15:23:43;;;;;;;3.65;2.38;;;;;;;;;;5091132;28;20213;-74
2021/07/02 15:26:10;;;;;;;5.57;2.90;;;;;;;;;;5092057;28;20240;-74
2021/07/02 15:28:36;;;;;;;4.65;2.80;;;;;;;;;;5057608;28;20216;-73
2021/07/02 15:31:22;;;;;;;3.88;2.15;;;;;;;;;;5092399;28;20230;-74
2021/07/02 15:33:49;;;;;;;5.50;2.38;;;;;;;;;;5091410;28;20208;-74
2021/07/02 15:36:15;;;;;;;2.50;1.75;;;;;;;;;;5092067;28;20299;-73
2021/07/02 15:38:42;;;;;;;4.32;2.17;;;;;;;;;;5092247;28;20223;-73